Αρχική σελίδα
METAR-TAF:

METAR-TAF

Αεροδρόμια :

Hastings Municipal Airport

Hastings, Νεμπράσκα, Ηνωμένες Πολιτείες Αμερικής

γεωγραφικό πλάτος: 40-36-02N, γεωγραφικό μήκος: 098-25-33W, υψόμετρο: 595 μ

Παρών καιρός

Η αναφορά έγινε 1 ώρα και 0 λεπτά πριν, στις 14:53 UTC
Άνεμος 4 kt από Δ
Θερμοκρασία -8°C
Υγρασία 79%
Πίεση 1025 hPa
Ορατότητα: 16.1 χλμ
Καθαρός ουρανός

METAR: KHSI 101453Z AUTO 26004KT 10SM CLR M08/M11 A3027 RMK AO2 SLP282 T10781106 53003

Χρόνος: 09:53 (15:53 UTC)


TAF: λείπει

Μετεωρολογικές αναφορές και προγνώσεις για περισσότερα από 4000 αεροδρόμια (δελτία METAR και TAF).

Οι διαθέσιμοι σταθμοί απεικονίζονται στο χάρτη με κίτρινες και κόκκινες κουκκίδες.

Μετακινήστε το ποντίκι πάνω από τις κουκκίδες για να δείτε το όνομα του σταθμού.

Στη συνέχεια, κάντε κλικ για να δείτε τις μετεωρολογικές αναφορές και τις προγνώσεις καιρού.

Για να αλλάξετε το χάρτη: κάντε κλικ στα πράσινα κουμπιά με τον μαύρο σταυρό για να ζουμάρετε, στο πράσινο κουμπί με την παύλα για να αφαιρέσετε το ζουμ ή στα πράσινα βέλη για να αντιπαραβάλλετε χάρτες.


METAR-TAF: